Time;durP1;ratioP1;P1;durP2;ratioP2;P2;SDS_P1;SDS_P2;PMS_P1;PMS_P2;Temp;Humidity;BMP_temperature;BMP_pressure;BME280_temperature;BME280_humidity;BME280_pressure;Samples;Min_cycle;Max_cycle;Signal;HPM_P1;HPM_P2
2022/07/13 00:00:47;;;;;;;0.50;0.40;;;;;;;17.97;57.45;99343.78;5001708;28;20286;-48
2022/07/13 00:03:16;;;;;;;1.13;0.60;;;;;;;17.91;57.96;99341.88;5000763;28;20273;-49
2022/07/13 00:05:42;;;;;;;1.90;0.60;;;;;;;17.90;57.84;99334.94;4988883;28;20215;-49
2022/07/13 00:08:09;;;;;;;0.70;0.50;;;;;;;17.93;58.12;99339.06;4989049;28;20219;-49
2022/07/13 00:10:35;;;;;;;1.83;0.60;;;;;;;17.95;58.23;99339.72;5002703;28;20208;-48
2022/07/13 00:13:02;;;;;;;1.50;0.60;;;;;;;17.93;58.83;99339.06;5005445;28;20750;-49
2022/07/13 00:15:29;;;;;;;0.60;0.60;;;;;;;17.97;58.00;99340.34;4990816;28;20220;-49
2022/07/13 00:17:56;;;;;;;0.60;0.60;;;;;;;18.01;59.32;99333.72;5004710;28;20581;-49
2022/07/13 00:20:27;;;;;;;0.77;0.70;;;;;;;17.94;59.57;99332.78;5002251;28;20572;-49
2022/07/13 00:22:54;;;;;;;0.57;0.57;;;;;;;17.96;60.10;99333.41;4995424;28;20245;-49
2022/07/13 00:25:21;;;;;;;0.53;0.53;;;;;;;17.90;59.99;99323.59;4971985;28;20650;-49
2022/07/13 00:27:48;;;;;;;2.17;0.67;;;;;;;17.78;60.10;99321.38;5003652;28;20204;-51
2022/07/13 00:30:16;;;;;;;0.90;0.50;;;;;;;17.73;60.79;99318.47;4973311;28;20263;-49
2022/07/13 00:32:43;;;;;;;1.43;0.83;;;;;;;17.74;61.16;99317.47;4988739;28;20228;-48
2022/07/13 00:35:09;;;;;;;0.87;0.60;;;;;;;17.61;61.40;99323.34;4974844;28;20221;-49
2022/07/13 00:37:38;;;;;;;0.50;0.50;;;;;;;17.51;61.45;99315.69;4997641;28;20214;-48
2022/07/13 00:40:06;;;;;;;0.53;0.53;;;;;;;17.51;61.99;99309.56;4979823;28;20208;-49
2022/07/13 00:42:33;;;;;;;0.77;0.60;;;;;;;17.48;61.70;99308.13;5006253;28;20549;-48
2022/07/13 00:45:00;;;;;;;0.90;0.60;;;;;;;17.51;62.44;99310.41;4988405;28;20204;-48
2022/07/13 00:47:31;;;;;;;1.83;0.70;;;;;;;17.65;62.52;99302.69;5002189;28;20195;-49
2022/07/13 00:50:00;;;;;;;0.50;0.50;;;;;;;17.70;61.83;99305.63;4983513;28;20227;-49
2022/07/13 00:52:27;;;;;;;0.60;0.60;;;;;;;17.70;61.67;99303.78;4987455;28;20234;-48
2022/07/13 00:54:56;;;;;;;1.47;0.77;;;;;;;17.74;61.89;99300.78;4978690;28;20207;-48
2022/07/13 00:57:24;;;;;;;0.40;0.40;;;;;;;17.77;62.33;99303.91;5004773;28;20196;-49
2022/07/13 00:59:52;;;;;;;2.93;0.60;;;;;;;17.81;60.92;99301.69;5006709;28;20199;-49
2022/07/13 01:02:19;;;;;;;1.53;0.50;;;;;;;17.82;61.31;99304.19;4990181;28;20245;-48
2022/07/13 01:04:46;;;;;;;0.70;0.50;;;;;;;17.82;60.60;99295.41;4979580;28;20215;-50
2022/07/13 01:07:14;;;;;;;0.70;0.70;;;;;;;17.87;60.08;99294.91;4985623;28;20600;-48
2022/07/13 01:09:41;;;;;;;1.67;0.50;;;;;;;17.94;60.48;99291.31;4984784;28;20276;-49
2022/07/13 01:12:09;;;;;;;2.20;0.50;;;;;;;18.01;60.37;99296.75;5008139;28;21109;-48
2022/07/13 01:14:37;;;;;;;0.67;0.50;;;;;;;18.07;60.05;99293.34;4981583;28;20203;-48
2022/07/13 01:17:04;;;;;;;1.90;0.73;;;;;;;18.15;60.13;99297.72;4990811;28;20682;-49
2022/07/13 01:19:34;;;;;;;0.63;0.60;;;;;;;18.23;59.94;99289.72;5006319;28;20670;-49
2022/07/13 01:22:04;;;;;;;0.60;0.50;;;;;;;18.32;59.67;99297.53;4981969;28;20290;-49
2022/07/13 01:24:34;;;;;;;0.87;0.60;;;;;;;18.39;59.99;99291.31;4979954;28;20282;-49
2022/07/13 01:27:01;;;;;;;1.33;0.70;;;;;;;18.47;60.71;99300.13;4978149;28;20200;-48
2022/07/13 01:29:27;;;;;;;0.60;0.60;;;;;;;18.50;61.19;99297.13;5007162;28;20226;-49
2022/07/13 01:31:59;;;;;;;0.80;0.70;;;;;;;18.50;59.48;99294.47;4980096;28;20315;-49
2022/07/13 01:34:26;;;;;;;1.63;0.50;;;;;;;18.46;58.90;99295.84;4983851;28;20196;-48
2022/07/13 01:36:53;;;;;;;1.83;0.60;;;;;;;18.44;58.80;99296.84;4978777;28;20203;-48
2022/07/13 01:39:20;;;;;;;4.17;0.70;;;;;;;18.46;58.51;99299.34;4974538;28;20194;-48
2022/07/13 01:41:48;;;;;;;0.40;0.40;;;;;;;18.51;57.71;99301.41;4976174;28;20248;-48
2022/07/13 01:44:16;;;;;;;0.50;0.50;;;;;;;18.61;57.13;99295.81;4979819;28;20320;-49
2022/07/13 01:46:43;;;;;;;3.50;0.60;;;;;;;18.60;57.14;99297.66;4988094;28;20297;-48
2022/07/13 01:49:10;;;;;;;0.60;0.60;;;;;;;18.56;57.69;99291.91;5006675;28;20211;-49
2022/07/13 01:51:38;;;;;;;0.63;0.47;;;;;;;18.48;58.49;99293.84;4988121;28;20204;-49
2022/07/13 01:54:04;;;;;;;0.60;0.50;;;;;;;18.39;58.97;99285.22;4976495;28;20228;-49
2022/07/13 01:56:32;;;;;;;1.10;0.47;;;;;;;18.34;60.09;99293.69;4973631;28;20231;-48
2022/07/13 01:59:00;;;;;;;1.03;0.70;;;;;;;18.25;59.77;99282.41;4978694;28;20198;-49
2022/07/13 02:01:27;;;;;;;2.53;0.60;;;;;;;18.13;60.21;99276.75;4984907;28;20196;-48
2022/07/13 02:03:55;;;;;;;3.27;0.60;;;;;;;18.03;61.23;99284.16;4970523;28;20779;-49
2022/07/13 02:06:23;;;;;;;0.60;0.40;;;;;;;17.92;61.33;99266.91;4984266;28;20203;-49
2022/07/13 02:08:50;;;;;;;0.70;0.60;;;;;;;17.80;61.99;99271.03;4998833;28;20212;-48
2022/07/13 02:11:20;;;;;;;0.60;0.50;;;;;;;17.71;62.20;99272.94;4986710;28;20200;-48
2022/07/13 02:13:48;;;;;;;1.03;0.60;;;;;;;17.71;61.40;99273.75;4999662;28;20225;-48
2022/07/13 02:16:17;;;;;;;0.57;0.57;;;;;;;17.62;61.98;99266.09;4977871;28;20323;-48
2022/07/13 02:18:44;;;;;;;1.33;0.83;;;;;;;17.53;62.43;99270.63;4984502;28;20206;-49
2022/07/13 02:21:12;;;;;;;2.63;0.70;;;;;;;17.49;62.32;99264.91;4983701;28;20271;-48
2022/07/13 02:23:42;;;;;;;0.40;0.40;;;;;;;17.40;62.14;99265.97;4981597;28;20216;-48
2022/07/13 02:26:09;;;;;;;1.07;0.50;;;;;;;17.35;62.39;99257.78;4975900;28;20198;-49
2022/07/13 02:28:39;;;;;;;1.77;0.60;;;;;;;17.27;62.60;99256.84;4988982;28;20252;-48
2022/07/13 02:31:06;;;;;;;1.00;0.60;;;;;;;17.22;62.62;99258.41;4977440;28;20294;-48
2022/07/13 02:33:34;;;;;;;1.10;0.70;;;;;;;17.18;62.18;99255.28;4998178;28;20227;-49
2022/07/13 02:36:01;;;;;;;0.70;0.60;;;;;;;17.11;62.48;99257.00;4973368;28;20204;-48
2022/07/13 02:38:28;;;;;;;0.90;0.57;;;;;;;17.00;63.61;99254.78;5003627;28;20196;-48
2022/07/13 02:40:55;;;;;;;1.13;0.60;;;;;;;17.03;63.41;99254.41;5001112;28;20295;-49
2022/07/13 02:43:24;;;;;;;0.73;0.70;;;;;;;16.93;63.45;99252.84;4976722;28;20222;-48
2022/07/13 02:45:51;;;;;;;2.07;0.50;;;;;;;16.90;64.53;99260.28;4985953;28;20318;-49
2022/07/13 02:48:18;;;;;;;0.83;0.60;;;;;;;16.89;63.82;99256.81;4981605;28;20729;-48
2022/07/13 02:50:48;;;;;;;1.23;0.63;;;;;;;16.83;64.42;99257.53;4972915;28;20220;-49
2022/07/13 02:53:15;;;;;;;0.60;0.43;;;;;;;16.83;64.37;99265.44;4976764;28;20245;-48
2022/07/13 02:55:42;;;;;;;1.83;0.70;;;;;;;16.82;64.55;99263.81;4979571;28;20684;-48
2022/07/13 02:58:09;;;;;;;0.67;0.60;;;;;;;16.76;65.10;99259.22;4977192;28;20210;-48
2022/07/13 03:00:36;;;;;;;1.63;0.50;;;;;;;16.72;64.79;99258.75;4977411;28;20203;-49
2022/07/13 03:03:04;;;;;;;0.77;0.60;;;;;;;16.70;64.37;99254.66;4980848;28;20224;-48
2022/07/13 03:05:31;;;;;;;1.57;0.60;;;;;;;16.68;64.79;99260.09;4977108;28;20733;-48
2022/07/13 03:08:00;;;;;;;1.80;0.60;;;;;;;16.65;65.22;99252.53;4984584;28;20536;-48
2022/07/13 03:10:27;;;;;;;2.10;0.60;;;;;;;16.69;64.73;99243.28;4978994;28;20301;-49
2022/07/13 03:12:59;;;;;;;3.13;0.60;;;;;;;16.74;65.00;99250.69;5000309;28;20310;-48
2022/07/13 03:15:27;;;;;;;1.67;0.63;;;;;;;16.78;64.04;99247.50;4980189;28;20885;-49
2022/07/13 03:17:55;;;;;;;1.07;0.70;;;;;;;16.87;64.48;99250.91;4978160;28;20191;-50
2022/07/13 03:20:22;;;;;;;0.40;0.40;;;;;;;16.94;62.51;99256.28;4980903;28;20196;-49
2022/07/13 03:22:49;;;;;;;1.37;0.60;;;;;;;17.09;61.93;99245.81;4977272;28;20824;-49
2022/07/13 03:25:18;;;;;;;0.77;0.50;;;;;;;17.11;63.32;99252.56;4973139;28;20678;-49
2022/07/13 03:27:45;;;;;;;0.63;0.50;;;;;;;17.13;62.59;99243.66;4975267;28;20341;-49
2022/07/13 03:30:12;;;;;;;1.67;0.50;;;;;;;17.10;62.19;99247.44;4977693;28;20219;-49
2022/07/13 03:32:39;;;;;;;1.13;0.60;;;;;;;17.02;63.62;99243.06;4973483;28;20275;-49
2022/07/13 03:35:07;;;;;;;0.70;0.50;;;;;;;16.97;63.54;99226.94;4972872;28;20194;-49
2022/07/13 03:37:37;;;;;;;0.57;0.57;;;;;;;16.88;63.13;99223.53;4986970;28;20632;-49
2022/07/13 03:40:05;;;;;;;0.60;0.60;;;;;;;16.80;64.00;99226.25;4978187;28;20647;-49
2022/07/13 03:42:37;;;;;;;1.93;0.63;;;;;;;16.75;63.98;99213.56;4988386;28;20221;-49
2022/07/13 03:45:06;;;;;;;1.93;0.50;;;;;;;16.95;61.82;99207.81;4986949;28;20204;-49
2022/07/13 03:47:35;;;;;;;0.43;0.40;;;;;;;17.10;60.77;99211.34;4975586;28;20695;-49
2022/07/13 03:50:02;;;;;;;0.60;0.57;;;;;;;17.20;61.25;99199.72;4988069;28;20599;-49
2022/07/13 03:52:30;;;;;;;0.40;0.40;;;;;;;17.41;60.41;99202.47;4973180;28;20232;-49
2022/07/13 03:54:57;;;;;;;0.43;0.43;;;;;;;17.43;59.79;99194.38;4974663;28;20743;-49
2022/07/13 03:57:25;;;;;;;3.53;0.50;;;;;;;17.42;60.56;99184.81;4974087;28;20756;-50
2022/07/13 03:59:53;;;;;;;0.90;0.60;;;;;;;17.35;61.02;99181.25;4987737;28;20192;-50
2022/07/13 04:02:20;;;;;;;0.57;0.50;;;;;;;17.32;61.28;99174.53;4980704;28;20218;-49
2022/07/13 04:04:48;;;;;;;0.67;0.50;;;;;;;17.25;61.13;99178.91;4977571;28;20200;-49
2022/07/13 04:07:15;;;;;;;0.90;0.50;;;;;;;17.24;61.56;99177.25;4973334;28;20235;-49
2022/07/13 04:09:43;;;;;;;0.93;0.57;;;;;;;17.18;61.50;99172.72;4977535;28;20214;-49
2022/07/13 04:12:11;;;;;;;0.57;0.50;;;;;;;17.13;61.79;99175.88;4977921;28;20388;-50
2022/07/13 04:14:38;;;;;;;0.70;0.50;;;;;;;17.13;62.05;99177.69;4978218;28;20198;-49
2022/07/13 04:17:07;;;;;;;0.57;0.47;;;;;;;17.08;61.74;99176.41;4972956;28;20321;-49
2022/07/13 04:19:34;;;;;;;0.90;0.50;;;;;;;17.13;61.40;99177.69;5001749;28;20209;-49
2022/07/13 04:22:01;;;;;;;0.80;0.60;;;;;;;17.10;61.25;99179.69;4974741;28;20549;-49
2022/07/13 04:24:28;;;;;;;0.50;0.50;;;;;;;17.27;62.44;99192.72;4984384;28;20201;-49
2022/07/13 04:26:56;;;;;;;0.63;0.50;;;;;;;17.17;62.93;99200.88;4977171;28;20699;-50
2022/07/13 04:29:23;;;;;;;1.13;0.63;;;;;;;17.07;63.64;99206.44;4983657;28;20203;-49
2022/07/13 04:31:50;;;;;;;0.80;0.53;;;;;;;17.05;64.64;99211.06;4979958;28;20198;-49
2022/07/13 04:34:19;;;;;;;0.90;0.40;;;;;;;17.05;61.99;99226.06;4984940;28;20230;-49
2022/07/13 04:36:47;;;;;;;0.60;0.50;;;;;;;17.07;61.97;99222.25;4983212;28;20258;-49
2022/07/13 04:39:16;;;;;;;0.93;0.60;;;;;;;17.02;63.30;99229.88;4991520;28;20293;-49
2022/07/13 04:41:43;;;;;;;4.83;1.00;;;;;;;17.00;64.06;99228.41;4983581;28;20676;-50
2022/07/13 04:44:10;;;;;;;1.63;1.10;;;;;;;16.95;64.97;99229.75;4981860;28;20236;-50
2022/07/13 04:46:55;;;;;;;3.83;0.90;;;;;;;16.88;65.70;99233.25;5005361;28;20209;-49
2022/07/13 04:49:24;;;;;;;1.87;0.80;;;;;;;16.67;66.30;99226.81;4976340;28;20213;-49
2022/07/13 04:51:51;;;;;;;0.67;0.67;;;;;;;16.56;67.26;99232.50;4978997;28;20596;-49
2022/07/13 04:54:21;;;;;;;2.93;1.10;;;;;;;16.44;68.38;99224.97;4979193;28;20194;-49
2022/07/13 04:56:48;;;;;;;1.60;1.20;;;;;;;16.38;69.54;99229.16;4975296;28;20194;-49
2022/07/13 04:59:15;;;;;;;2.53;1.23;;;;;;;16.31;70.07;99233.47;4991477;28;20650;-49
2022/07/13 05:01:43;;;;;;;2.17;1.20;;;;;;;16.25;70.00;99230.72;5004504;28;20255;-50
2022/07/13 05:04:11;;;;;;;1.50;1.30;;;;;;;16.21;70.73;99223.16;5008818;28;20213;-51
2022/07/13 05:06:41;;;;;;;4.00;1.30;;;;;;;16.22;71.07;99223.97;4983505;28;21095;-50
2022/07/13 05:09:07;;;;;;;2.17;1.53;;;;;;;16.22;72.19;99224.81;4985530;28;20204;-49
2022/07/13 05:11:34;;;;;;;1.60;1.23;;;;;;;16.21;72.48;99227.59;4982249;28;20218;-49
2022/07/13 05:14:02;;;;;;;1.37;0.93;;;;;;;16.21;72.24;99219.69;4979611;28;20297;-50
2022/07/13 05:16:30;;;;;;;4.80;1.20;;;;;;;16.29;71.73;99218.84;4983436;28;20733;-49
2022/07/13 05:19:00;;;;;;;2.87;1.20;;;;;;;16.41;71.33;99219.25;4991197;28;20202;-49
2022/07/13 05:21:33;;;;;;;2.00;1.03;;;;;;;16.49;70.45;99219.22;4975346;28;20203;-49
2022/07/13 05:24:02;;;;;;;1.30;1.20;;;;;;;16.57;70.29;99226.22;4980753;28;20245;-49
2022/07/13 05:26:29;;;;;;;2.03;0.87;;;;;;;16.58;70.24;99223.44;4984466;28;20231;-49
2022/07/13 05:28:57;;;;;;;1.07;0.90;;;;;;;16.60;70.36;99239.06;4976976;28;20682;-49
2022/07/13 05:31:24;;;;;;;1.63;0.80;;;;;;;16.61;69.84;99240.69;4974346;28;20222;-49
2022/07/13 05:33:52;;;;;;;3.07;0.97;;;;;;;16.63;69.35;99242.19;4977956;28;20215;-50
2022/07/13 05:36:25;;;;;;;1.88;0.73;;;;;;;16.72;68.91;99248.19;4973270;28;21458;-50
2022/07/13 05:38:53;;;;;;;0.93;0.70;;;;;;;16.83;69.01;99247.78;4975439;28;20205;-50
2022/07/13 05:41:21;;;;;;;0.70;0.70;;;;;;;17.03;68.28;99257.91;4984306;28;20220;-49
2022/07/13 05:43:48;;;;;;;3.43;0.60;;;;;;;17.30;67.18;99252.22;5002666;28;20324;-49
2022/07/13 05:46:16;;;;;;;2.40;0.70;;;;;;;17.66;66.02;99249.72;4972603;28;20199;-49
2022/07/13 05:48:43;;;;;;;1.03;0.70;;;;;;;18.06;64.56;99249.44;4975786;28;20224;-50
2022/07/13 05:51:11;;;;;;;1.20;0.80;;;;;;;18.51;64.11;99248.53;4978558;28;20227;-49
2022/07/13 05:53:38;;;;;;;1.20;0.60;;;;;;;18.89;62.45;99245.66;4979334;28;20295;-49
2022/07/13 05:56:06;;;;;;;0.77;0.60;;;;;;;19.26;61.78;99242.94;4983903;28;20744;-49
2022/07/13 05:58:34;;;;;;;0.97;0.50;;;;;;;19.69;61.19;99239.31;4987202;28;20591;-49
2022/07/13 06:01:01;;;;;;;0.50;0.50;;;;;;;20.03;59.76;99241.16;4999236;28;21373;-49
2022/07/13 06:03:28;;;;;;;0.50;0.50;;;;;;;20.31;58.11;99248.19;4982369;28;20275;-50
2022/07/13 06:05:55;;;;;;;3.87;0.60;;;;;;;20.60;54.85;99245.41;5004193;28;20200;-51
2022/07/13 06:08:21;;;;;;;0.57;0.40;;;;;;;20.73;55.23;99247.25;5000157;28;20212;-49
2022/07/13 06:10:48;;;;;;;2.93;0.60;;;;;;;20.91;55.09;99244.03;5003975;28;20219;-50
2022/07/13 06:13:15;;;;;;;1.47;0.70;;;;;;;20.93;54.19;99249.97;4997249;28;20216;-50
2022/07/13 06:15:43;;;;;;;3.70;0.67;;;;;;;21.08;53.41;99253.25;5005741;28;20691;-50
2022/07/13 06:18:10;;;;;;;2.00;0.70;;;;;;;21.29;52.86;99258.53;5004801;28;20200;-50
2022/07/13 06:20:37;;;;;;;2.73;0.70;;;;;;;21.45;53.09;99254.63;5005531;28;20223;-50
2022/07/13 06:23:10;;;;;;;2.67;0.70;;;;;;;21.58;55.13;99261.78;4996875;28;20744;-49
2022/07/13 06:25:37;;;;;;;2.70;0.90;;;;;;;21.73;53.82;99256.25;5004766;28;20290;-50
2022/07/13 06:28:05;;;;;;;1.10;0.80;;;;;;;21.62;52.18;99253.19;4996301;28;20195;-49
2022/07/13 06:30:32;;;;;;;0.97;0.80;;;;;;;21.56;52.38;99251.34;4997552;28;20217;-50
2022/07/13 06:33:00;;;;;;;1.57;1.00;;;;;;;21.72;52.17;99250.13;5000523;28;20223;-51
2022/07/13 06:35:30;;;;;;;3.83;1.00;;;;;;;21.97;51.81;99244.94;5007014;28;20198;-50
2022/07/13 06:37:58;;;;;;;3.87;0.80;;;;;;;22.14;51.35;99246.28;4979003;28;20276;-50
2022/07/13 06:40:24;;;;;;;1.37;0.70;;;;;;;22.37;51.98;99245.75;4994331;28;20204;-49
2022/07/13 06:42:52;;;;;;;1.60;0.80;;;;;;;22.54;52.99;99254.09;4987870;28;20239;-50
2022/07/13 06:45:21;;;;;;;1.37;0.80;;;;;;;22.68;53.22;99254.81;4996752;28;20222;-49
2022/07/13 06:47:47;;;;;;;1.43;0.80;;;;;;;22.91;51.30;99248.13;4996068;28;20204;-50
2022/07/13 06:50:16;;;;;;;1.70;0.67;;;;;;;23.11;50.07;99253.28;5004008;28;20215;-50
2022/07/13 06:52:44;;;;;;;2.00;0.80;;;;;;;23.21;49.29;99258.13;5003495;28;20209;-51
2022/07/13 06:55:12;;;;;;;0.90;0.80;;;;;;;23.26;47.69;99260.97;4997288;28;20208;-49
2022/07/13 06:57:38;;;;;;;0.70;0.60;;;;;;;23.34;48.58;99260.66;5002567;28;20882;-50
2022/07/13 07:00:08;;;;;;;1.10;0.60;;;;;;;23.60;47.36;99256.13;5003568;28;20273;-50
2022/07/13 07:02:36;;;;;;;2.60;0.90;;;;;;;23.80;46.12;99260.44;4997121;28;20347;-49
2022/07/13 07:05:03;;;;;;;2.07;0.73;;;;;;;23.96;45.92;99257.16;4994353;28;20196;-50
2022/07/13 07:07:31;;;;;;;0.97;0.53;;;;;;;24.20;44.40;99249.31;4997074;28;20229;-50
2022/07/13 07:09:58;;;;;;;1.37;0.63;;;;;;;24.36;43.10;99242.53;4994476;28;20223;-50
2022/07/13 07:12:26;;;;;;;2.70;0.83;;;;;;;24.29;43.58;99257.81;4998795;28;20227;-50
2022/07/13 07:14:53;;;;;;;1.10;0.67;;;;;;;24.38;43.98;99250.31;4999567;28;20194;-50
2022/07/13 07:17:19;;;;;;;3.57;0.53;;;;;;;24.69;43.70;99254.59;4996909;28;20206;-50
2022/07/13 07:19:47;;;;;;;1.97;0.87;;;;;;;24.49;42.13;99241.53;4983295;28;20207;-50
2022/07/13 07:22:14;;;;;;;0.57;0.50;;;;;;;24.59;41.82;99243.66;4995628;28;20218;-49
2022/07/13 07:24:43;;;;;;;0.90;0.50;;;;;;;24.94;41.98;99253.59;4975159;28;20659;-50
2022/07/13 07:27:10;;;;;;;1.53;1.00;;;;;;;25.02;42.62;99263.94;4979982;28;20233;-50
2022/07/13 07:29:37;;;;;;;2.00;0.90;;;;;;;25.04;43.25;99266.41;5000157;28;20208;-50
2022/07/13 07:32:05;;;;;;;3.60;1.50;;;;;;;24.93;41.86;99268.00;4999145;28;20233;-50
2022/07/13 07:34:32;;;;;;;5.80;1.50;;;;;;;24.56;43.18;99271.59;4997613;28;20209;-50
2022/07/13 07:37:00;;;;;;;1.70;1.07;;;;;;;24.56;44.47;99271.59;4997751;28;20287;-50
2022/07/13 07:39:27;;;;;;;0.90;0.80;;;;;;;24.56;45.55;99270.78;4993206;28;20201;-50
2022/07/13 07:41:55;;;;;;;2.07;0.90;;;;;;;24.55;45.40;99272.63;5004355;28;20194;-50
2022/07/13 07:44:22;;;;;;;1.80;1.00;;;;;;;24.65;46.57;99273.94;5002689;28;20221;-50
2022/07/13 07:46:49;;;;;;;5.67;1.10;;;;;;;24.83;46.28;99271.25;4978712;28;20201;-48
2022/07/13 07:49:17;;;;;;;1.70;0.90;;;;;;;24.85;44.49;99274.50;4985268;28;20219;-48
2022/07/13 07:51:43;;;;;;;2.53;0.70;;;;;;;24.96;44.81;99272.09;4981748;28;20645;-48
2022/07/13 07:54:11;;;;;;;3.50;0.80;;;;;;;25.20;44.73;99270.25;4981177;28;20225;-48
2022/07/13 07:56:38;;;;;;;2.47;1.00;;;;;;;25.18;44.66;99275.00;4998090;28;20199;-48
2022/07/13 07:59:06;;;;;;;4.83;0.90;;;;;;;25.25;43.57;99265.03;4999971;28;20209;-48
2022/07/13 08:01:33;;;;;;;1.43;1.00;;;;;;;25.20;42.85;99271.06;5000092;28;20189;-50
2022/07/13 08:04:00;;;;;;;0.83;0.73;;;;;;;25.46;42.34;99276.22;5004432;28;20272;-48
2022/07/13 08:06:27;;;;;;;2.53;0.83;;;;;;;25.49;41.11;99268.53;5002537;28;20195;-48
2022/07/13 08:08:54;;;;;;;2.43;0.90;;;;;;;25.50;40.20;99270.16;5000480;28;20568;-50
2022/07/13 08:11:21;;;;;;;1.13;0.87;;;;;;;25.62;41.15;99272.00;4986398;28;20647;-49
2022/07/13 08:13:49;;;;;;;1.37;0.77;;;;;;;25.62;42.47;99272.00;4995984;28;20793;-49
2022/07/13 08:16:18;;;;;;;1.27;1.00;;;;;;;25.61;42.13;99265.03;4993970;28;20240;-51
2022/07/13 08:19:04;;;;;;;1.63;0.80;;;;;;;25.45;42.68;99263.88;4999439;28;20215;-50
2022/07/13 08:21:31;;;;;;;3.57;1.13;;;;;;;25.38;43.24;99269.34;5002781;28;20629;-50
2022/07/13 08:23:58;;;;;;;1.10;0.80;;;;;;;25.37;42.51;99258.88;4997264;28;20222;-49
2022/07/13 08:26:27;;;;;;;1.50;0.90;;;;;;;25.35;42.34;99259.91;4997854;28;20195;-50
2022/07/13 08:28:56;;;;;;;2.23;0.83;;;;;;;25.71;42.05;99259.91;4981904;28;20193;-49
2022/07/13 08:31:25;;;;;;;2.67;0.90;;;;;;;26.04;42.89;99255.78;5004926;28;20210;-49
2022/07/13 08:39:21;;;;;;;2.40;0.87;;;;;;;25.83;43.20;99254.56;4996607;28;20195;-50
2022/07/13 08:41:49;;;;;;;1.40;1.10;;;;;;;25.59;43.58;99256.44;5002105;28;20579;-50
2022/07/13 08:44:17;;;;;;;4.03;1.10;;;;;;;25.40;44.02;99264.56;5001917;28;20217;-50
2022/07/13 08:46:46;;;;;;;2.43;1.20;;;;;;;25.23;45.65;99267.09;5001596;28;20203;-49
2022/07/13 08:49:13;;;;;;;5.37;1.10;;;;;;;24.67;45.77;99258.50;5001630;28;20680;-49
2022/07/13 08:51:42;;;;;;;4.73;1.30;;;;;;;24.49;46.28;99257.53;5004081;28;20215;-49
2022/07/13 08:54:10;;;;;;;2.37;1.10;;;;;;;24.33;46.50;99261.66;4994041;28;20219;-49
2022/07/13 08:56:36;;;;;;;1.90;1.13;;;;;;;24.50;46.10;99258.34;5007083;28;20566;-48
2022/07/13 08:59:04;;;;;;;4.70;1.40;;;;;;;24.35;45.77;99256.09;5002155;28;20660;-49
2022/07/13 09:01:32;;;;;;;3.08;1.20;;;;;;;24.43;46.25;99255.78;5000075;28;21030;-50
2022/07/13 09:07:42;;;;;;;2.50;0.80;;;;;;;24.72;44.46;99254.16;4999179;28;20220;-51
2022/07/13 09:10:09;;;;;;;1.37;0.70;;;;;;;24.86;40.54;99259.31;5001757;28;20209;-50
2022/07/13 09:12:36;;;;;;;1.30;0.60;;;;;;;24.89;40.77;99251.63;5004788;28;20686;-50
2022/07/13 09:15:06;;;;;;;1.77;1.10;;;;;;;25.03;42.49;99257.56;5001260;28;20250;-49
2022/07/13 09:17:36;;;;;;;3.23;1.00;;;;;;;25.08;42.28;99259.56;5001554;28;20193;-49
2022/07/13 09:20:21;;;;;;;1.30;0.90;;;;;;;25.19;40.88;99256.09;4997774;28;20211;-49
2022/07/13 09:23:07;;;;;;;3.10;0.67;;;;;;;25.19;38.36;99258.75;4997807;28;20813;-49
2022/07/13 09:25:37;;;;;;;1.03;0.70;;;;;;;25.15;40.43;99260.25;4997661;28;20213;-49
2022/07/13 09:28:05;;;;;;;1.50;0.80;;;;;;;25.29;40.26;99262.72;4982504;28;20234;-49
2022/07/13 09:30:33;;;;;;;0.83;0.70;;;;;;;25.31;40.48;99264.09;4998245;28;20696;-50
2022/07/13 09:33:01;;;;;;;1.07;0.60;;;;;;;25.34;38.33;99271.66;4999395;28;20234;-50
2022/07/13 09:35:42;;;;;;;1.20;0.80;;;;;;;25.38;38.24;99272.00;5003502;28;20246;-50
2022/07/13 09:38:28;;;;;;;1.57;0.83;;;;;;;25.42;39.96;99277.69;4999109;28;20196;-50
2022/07/13 09:40:55;;;;;;;3.93;0.90;;;;;;;25.53;39.45;99270.72;4999121;28;20203;-50
2022/07/13 09:46:09;;;;;;;5.83;1.00;;;;;;;25.65;38.48;99271.53;5000647;28;20233;-50
2022/07/13 09:48:36;;;;;;;0.97;0.67;;;;;;;25.63;38.66;99265.59;4995350;28;20201;-50
2022/07/13 09:51:03;;;;;;;1.63;0.70;;;;;;;25.78;38.17;99265.13;4999861;28;20686;-51
2022/07/13 09:53:33;;;;;;;2.83;0.80;;;;;;;25.99;39.06;99266.38;4994718;28;20237;-50
2022/07/13 09:56:02;;;;;;;2.87;0.60;;;;;;;26.18;37.77;99269.69;5003876;28;20198;-50
2022/07/13 09:58:30;;;;;;;0.70;0.50;;;;;;;26.31;37.00;99262.44;5005419;28;20230;-51
2022/07/13 10:00:58;;;;;;;2.90;0.90;;;;;;;26.30;37.47;99271.53;5000277;28;20531;-50
2022/07/13 10:03:25;;;;;;;8.10;1.07;;;;;;;26.18;37.69;99260.88;4996935;28;20576;-51
2022/07/13 10:05:53;;;;;;;1.33;0.77;;;;;;;26.26;38.58;99257.81;5002232;28;20194;-51
2022/07/13 10:08:21;;;;;;;4.22;0.60;;;;;;;26.35;37.22;99274.28;5005185;28;20191;-50
2022/07/13 10:10:50;;;;;;;1.63;0.80;;;;;;;26.28;37.65;99269.09;5003983;28;20282;-51
2022/07/13 10:13:18;;;;;;;1.10;0.60;;;;;;;26.30;37.11;99269.66;5006786;28;20232;-50
2022/07/13 10:15:45;;;;;;;1.90;0.80;;;;;;;26.37;36.93;99270.34;4995260;28;20217;-50
2022/07/13 10:18:17;;;;;;;1.23;0.60;;;;;;;26.37;37.50;99274.88;4995176;28;20213;-51
2022/07/13 10:20:53;;;;;;;2.27;0.73;;;;;;;26.48;37.68;99268.66;5001223;28;20191;-50
2022/07/13 10:23:38;;;;;;;2.03;0.63;;;;;;;26.50;36.02;99265.75;5003857;28;20309;-50
2022/07/13 10:26:18;;;;;;;1.83;0.60;;;;;;;26.57;36.52;99263.72;4999776;28;20198;-50
2022/07/13 10:29:01;;;;;;;2.27;0.70;;;;;;;26.69;35.57;99263.66;5002410;28;20659;-50
2022/07/13 10:31:29;;;;;;;1.03;0.53;;;;;;;26.83;36.38;99258.81;4990762;28;20726;-50
2022/07/13 10:33:56;;;;;;;1.07;0.70;;;;;;;26.88;33.95;99258.91;4983474;28;20219;-50
2022/07/13 10:36:52;;;;;;;0.60;0.60;;;;;;;26.95;34.98;99258.78;5003038;28;20568;-50
2022/07/13 10:39:19;;;;;;;1.07;0.80;;;;;;;27.00;34.84;99260.69;4999327;28;20643;-50
2022/07/13 10:41:58;;;;;;;0.53;0.53;;;;;;;27.04;36.46;99267.19;4976647;28;20237;-50
2022/07/13 10:44:37;;;;;;;1.30;0.73;;;;;;;27.15;36.22;99263.63;4996536;28;20210;-50
2022/07/13 10:47:04;;;;;;;0.87;0.70;;;;;;;27.27;35.57;99260.84;5000014;28;20204;-50
2022/07/13 10:49:41;;;;;;;2.20;0.80;;;;;;;27.48;35.47;99251.28;4999059;28;20195;-50
2022/07/13 10:52:49;;;;;;;1.98;0.90;;;;;;;27.65;35.16;99261.94;4995509;28;20206;-50
2022/07/13 10:55:29;;;;;;;1.73;0.70;;;;;;;27.64;33.85;99256.81;5004091;28;20264;-50
2022/07/13 10:57:57;;;;;;;0.80;0.80;;;;;;;27.54;34.50;99254.81;4999244;28;20223;-50
2022/07/13 11:00:42;;;;;;;1.87;0.80;;;;;;;27.59;34.51;99251.38;4993488;28;20200;-50
2022/07/13 11:03:24;;;;;;;1.47;0.90;;;;;;;27.61;35.78;99252.78;5001542;28;20230;-50
2022/07/13 11:06:05;;;;;;;1.70;0.90;;;;;;;27.84;35.25;99257.06;4996401;28;20647;-51
2022/07/13 11:08:32;;;;;;;1.23;0.90;;;;;;;27.89;35.25;99242.09;4999526;28;20737;-50
2022/07/13 11:11:13;;;;;;;3.87;1.00;;;;;;;28.27;34.88;99245.78;5005119;28;20677;-50
2022/07/13 11:13:44;;;;;;;1.40;0.82;;;;;;;28.58;33.94;99246.88;5005782;28;20227;-51
2022/07/13 11:16:12;;;;;;;1.75;0.70;;;;;;;28.61;33.30;99236.69;4998346;28;20225;-50
2022/07/13 11:18:40;;;;;;;1.70;0.60;;;;;;;28.77;34.76;99232.28;4996630;28;20198;-50
2022/07/13 11:21:10;;;;;;;2.37;0.83;;;;;;;28.93;32.87;99228.66;4997253;28;20194;-50
2022/07/13 11:26:51;;;;;;;1.83;0.80;;;;;;;29.75;31.45;99214.03;4997230;28;20199;-51
2022/07/13 11:29:22;;;;;;;0.70;0.70;;;;;;;29.89;31.86;99223.25;5001165;28;20205;-50
2022/07/13 11:31:55;;;;;;;0.80;0.70;;;;;;;30.20;32.29;99203.72;5001596;28;20219;-50
2022/07/13 11:34:22;;;;;;;0.95;0.73;;;;;;;30.69;31.56;99210.50;5001377;28;20680;-50
2022/07/13 11:36:49;;;;;;;1.52;0.60;;;;;;;30.86;29.87;99210.22;4998746;28;20215;-50
2022/07/13 11:39:26;;;;;;;2.25;1.00;;;;;;;30.57;30.14;99208.03;4993973;28;20215;-50
2022/07/13 11:41:56;;;;;;;1.00;0.80;;;;;;;31.00;29.37;99215.84;4998117;28;20216;-50
2022/07/13 11:44:26;;;;;;;1.65;0.70;;;;;;;30.92;30.39;99205.63;4993449;28;20204;-50
2022/07/13 11:46:54;;;;;;;1.08;0.70;;;;;;;30.78;29.44;99202.66;4982871;28;20196;-53
2022/07/13 11:49:21;;;;;;;0.70;0.70;;;;;;;30.78;29.96;99205.38;4994913;28;20588;-50
2022/07/13 11:51:49;;;;;;;0.82;0.60;;;;;;;30.81;30.58;99204.00;4998489;28;20204;-50
2022/07/13 11:54:34;;;;;;;2.05;0.70;;;;;;;30.80;28.85;99200.50;4999298;28;20207;-51
2022/07/13 11:57:01;;;;;;;3.33;0.80;;;;;;;30.69;29.34;99197.03;4996089;28;20383;-50